createdAt,value
2023-03-11T00:02:27.329Z,4.28
2023-03-11T00:04:54.827Z,4.32
2023-03-11T00:07:22.360Z,4.85
2023-03-11T00:09:50.010Z,6.50
2023-03-11T00:12:17.395Z,6.60
2023-03-11T00:14:44.764Z,3.88
2023-03-11T00:17:12.156Z,6.18
2023-03-11T00:19:39.523Z,4.93
2023-03-11T00:22:06.926Z,6.57
2023-03-11T00:24:35.300Z,6.30
2023-03-11T00:27:02.600Z,4.03
2023-03-11T00:29:30.202Z,5.25
2023-03-11T00:31:57.769Z,4.10
2023-03-11T00:34:25.844Z,6.67
2023-03-11T00:36:54.537Z,6.35
2023-03-11T00:39:23.385Z,4.18
2023-03-11T00:41:52.088Z,5.00
2023-03-11T00:44:19.729Z,5.15
2023-03-11T00:46:47.136Z,5.93
2023-03-11T00:49:14.578Z,3.30
2023-03-11T00:51:42.311Z,4.97
2023-03-11T00:54:10.017Z,4.80
2023-03-11T00:56:38.744Z,3.97
2023-03-11T00:59:06.695Z,2.70
2023-03-11T01:01:34.610Z,4.25
2023-03-11T01:04:02.081Z,3.42
2023-03-11T01:06:39.177Z,6.63
2023-03-11T01:09:12.074Z,10.38
2023-03-11T01:11:39.451Z,6.67
2023-03-11T01:14:08.948Z,8.50
2023-03-11T01:16:36.374Z,4.90
2023-03-11T01:19:04.234Z,4.00
2023-03-11T01:21:31.772Z,4.70
2023-03-11T01:24:00.069Z,6.90
2023-03-11T01:26:27.485Z,3.78
2023-03-11T01:28:56.570Z,7.18
2023-03-11T01:31:24.128Z,5.10
2023-03-11T01:33:51.577Z,3.85
2023-03-11T01:36:18.905Z,4.87
2023-03-11T01:38:46.350Z,5.60
2023-03-11T01:41:14.091Z,7.32
2023-03-11T01:43:41.873Z,5.60
2023-03-11T01:46:37.496Z,7.57
2023-03-11T01:49:05.578Z,3.33
2023-03-11T01:51:38.373Z,4.45
2023-03-11T01:54:12.788Z,6.07
2023-03-11T01:56:42.175Z,2.20
2023-03-11T01:59:11.568Z,5.57
2023-03-11T02:01:42.829Z,2.63
2023-03-11T02:04:10.680Z,3.47
2023-03-11T02:06:38.855Z,3.13
2023-03-11T02:09:06.311Z,3.55
2023-03-11T02:11:33.976Z,2.72
2023-03-11T02:14:04.082Z,3.33
2023-03-11T02:16:31.757Z,2.70
2023-03-11T02:19:01.509Z,5.40
2023-03-11T02:21:32.856Z,3.78
2023-03-11T02:24:11.388Z,9.93
2023-03-11T02:26:45.148Z,3.07
2023-03-11T02:29:13.016Z,2.60
2023-03-11T02:31:43.245Z,3.13
2023-03-11T02:34:15.565Z,2.70
2023-03-11T02:36:43.512Z,4.32
2023-03-11T02:39:14.019Z,4.33
2023-03-11T02:41:44.784Z,4.53
2023-03-11T02:44:14.569Z,5.40
2023-03-11T02:46:43.298Z,5.40
2023-03-11T02:49:12.468Z,4.07
2023-03-11T02:51:39.920Z,3.77
2023-03-11T02:54:07.510Z,5.53
2023-03-11T02:56:36.495Z,3.75
2023-03-11T02:59:03.877Z,4.50
2023-03-11T03:01:31.441Z,4.88
2023-03-11T03:03:59.422Z,5.30
2023-03-11T03:06:28.690Z,4.30
2023-03-11T03:08:56.230Z,3.35
2023-03-11T03:11:23.639Z,3.90
2023-03-11T03:13:51.023Z,4.88
2023-03-11T03:16:18.494Z,7.47
2023-03-11T03:18:45.919Z,3.83
2023-03-11T03:21:13.360Z,4.28
2023-03-11T03:23:40.776Z,8.15
2023-03-11T03:26:08.254Z,5.78
2023-03-11T03:28:38.240Z,5.23
2023-03-11T03:31:08.009Z,3.38
2023-03-11T03:33:37.071Z,9.25
2023-03-11T03:36:07.915Z,3.63
2023-03-11T03:38:40.441Z,3.15
2023-03-11T03:41:08.118Z,8.13
2023-03-11T03:43:38.527Z,2.83
2023-03-11T03:46:06.648Z,3.15
2023-03-11T03:48:41.880Z,5.72
2023-03-11T03:51:12.246Z,3.83
2023-03-11T03:53:46.538Z,4.43
2023-03-11T03:56:16.815Z,4.75
2023-03-11T03:58:45.413Z,6.68
2023-03-11T04:01:13.236Z,3.45
2023-03-11T04:03:41.691Z,6.50
2023-03-11T04:06:20.218Z,3.30
2023-03-11T04:08:52.487Z,3.92
2023-03-11T04:11:21.988Z,4.70
2023-03-11T04:13:49.452Z,6.82
2023-03-11T04:16:21.538Z,3.95
2023-03-11T04:18:49.644Z,4.00
2023-03-11T04:21:18.261Z,6.07
2023-03-11T04:23:47.289Z,4.22
2023-03-11T04:26:17.133Z,3.97
2023-03-11T04:28:44.594Z,2.83
2023-03-11T04:31:12.642Z,5.03
2023-03-11T04:33:40.236Z,4.22
2023-03-11T04:36:10.751Z,4.63
2023-03-11T04:38:39.104Z,5.68
2023-03-11T04:41:09.022Z,5.38
2023-03-11T04:43:39.368Z,4.20
2023-03-11T04:46:06.951Z,4.13
2023-03-11T04:48:34.628Z,8.85
2023-03-11T04:51:02.192Z,3.00
2023-03-11T04:53:29.986Z,5.43
2023-03-11T04:55:57.877Z,3.20
2023-03-11T04:58:25.639Z,5.28
2023-03-11T05:00:53.449Z,5.68
2023-03-11T05:03:22.112Z,6.78
2023-03-11T05:05:49.682Z,4.00
2023-03-11T05:08:19.864Z,5.73
2023-03-11T05:10:47.278Z,3.72
2023-03-11T05:13:14.696Z,6.22
2023-03-11T05:15:42.685Z,6.97
2023-03-11T05:18:10.900Z,4.72
2023-03-11T05:20:39.408Z,4.00
2023-03-11T05:23:08.067Z,5.30
2023-03-11T05:25:37.194Z,5.90
2023-03-11T05:28:05.570Z,3.85
2023-03-11T05:30:36.219Z,3.88
2023-03-11T05:33:04.380Z,6.10
2023-03-11T05:35:32.087Z,4.53
2023-03-11T05:37:59.714Z,5.10
2023-03-11T05:40:29.232Z,4.22
2023-03-11T05:42:56.751Z,4.93
2023-03-11T05:45:24.122Z,4.87
2023-03-11T05:47:53.231Z,5.38
2023-03-11T05:50:20.705Z,8.23
2023-03-11T05:52:49.347Z,3.40
2023-03-11T05:55:17.121Z,3.83
2023-03-11T05:57:46.144Z,8.50
2023-03-11T06:00:13.833Z,7.30
2023-03-11T06:02:42.450Z,12.88
2023-03-11T06:05:14.016Z,7.13
2023-03-11T06:07:43.200Z,6.20
2023-03-11T06:10:11.180Z,5.67
2023-03-11T06:12:39.364Z,5.18
2023-03-11T06:15:15.740Z,3.58
2023-03-11T06:17:43.583Z,5.53
2023-03-11T06:20:11.265Z,10.50
2023-03-11T06:22:40.271Z,12.63
2023-03-11T06:25:08.757Z,10.27
2023-03-11T06:27:37.402Z,10.32
2023-03-11T06:30:05.874Z,10.43
2023-03-11T06:32:38.376Z,4.82
2023-03-11T06:35:05.921Z,5.53
2023-03-11T06:37:36.500Z,4.30
2023-03-11T06:40:05.327Z,6.40
2023-03-11T06:42:32.688Z,3.97
2023-03-11T06:45:00.262Z,9.75
2023-03-11T06:47:27.892Z,5.80
2023-03-11T06:49:55.795Z,9.05
2023-03-11T06:52:23.108Z,6.55
2023-03-11T06:54:50.399Z,3.55
2023-03-11T06:57:18.163Z,3.78
2023-03-11T06:59:47.415Z,4.50
2023-03-11T07:02:17.081Z,3.70
2023-03-11T07:04:44.394Z,10.73
2023-03-11T07:07:12.383Z,3.92
2023-03-11T07:09:39.690Z,8.48
2023-03-11T07:12:09.335Z,3.83
2023-03-11T07:14:37.742Z,4.40
2023-03-11T07:17:04.998Z,6.88
2023-03-11T07:19:52.551Z,4.85
2023-03-11T07:22:20.049Z,4.65
2023-03-11T07:24:47.854Z,7.07
2023-03-11T07:27:15.583Z,6.72
2023-03-11T07:29:42.904Z,6.03
2023-03-11T07:32:10.585Z,5.32
2023-03-11T07:34:37.882Z,6.43
2023-03-11T07:37:05.302Z,6.87
2023-03-11T07:39:32.547Z,2.60
2023-03-11T07:41:59.849Z,4.85
2023-03-11T07:44:34.867Z,5.55
2023-03-11T07:47:05.835Z,8.52
2023-03-11T07:49:34.161Z,6.65
2023-03-11T07:52:01.444Z,3.42
2023-03-11T07:54:28.706Z,5.53
2023-03-11T07:56:55.954Z,6.60
2023-03-11T07:59:23.278Z,4.38
2023-03-11T08:01:50.762Z,6.17
2023-03-11T08:04:26.038Z,18.20
2023-03-11T08:06:53.292Z,7.82
2023-03-11T08:09:20.538Z,5.70
2023-03-11T08:11:49.672Z,4.53
2023-03-11T08:14:17.065Z,3.03
2023-03-11T08:16:44.360Z,3.97
2023-03-11T08:19:14.932Z,6.57
2023-03-11T08:21:42.345Z,4.05
2023-03-11T08:24:11.537Z,6.15
2023-03-11T08:26:39.045Z,4.25
2023-03-11T08:29:06.717Z,2.78
2023-03-11T08:31:35.241Z,4.03
2023-03-11T08:34:07.689Z,3.08
2023-03-11T08:36:35.240Z,41.67
2023-03-11T08:39:03.534Z,42.80
2023-03-11T08:41:30.925Z,26.58
2023-03-11T08:43:58.169Z,14.57
2023-03-11T08:46:27.368Z,5.93
2023-03-11T08:48:55.040Z,5.50
2023-03-11T08:51:22.855Z,3.88
2023-03-11T08:53:50.470Z,4.95
2023-03-11T08:56:17.846Z,4.88
2023-03-11T08:58:45.259Z,3.00
2023-03-11T09:01:13.143Z,4.07
2023-03-11T09:03:40.514Z,6.78
2023-03-11T09:06:09.637Z,9.05
2023-03-11T09:08:36.976Z,4.40
2023-03-11T09:11:05.565Z,6.93
2023-03-11T09:13:33.112Z,6.07
2023-03-11T09:16:00.460Z,3.22
2023-03-11T09:18:29.324Z,3.58
2023-03-11T09:20:58.454Z,3.80
2023-03-11T09:23:26.003Z,2.70
2023-03-11T09:25:53.274Z,7.57
2023-03-11T09:28:20.532Z,2.95
2023-03-11T09:30:47.852Z,4.50
2023-03-11T09:33:15.109Z,8.75
2023-03-11T09:35:42.596Z,4.22
2023-03-11T09:38:09.842Z,4.85
2023-03-11T09:40:47.010Z,2.03
2023-03-11T09:43:31.986Z,4.15
2023-03-11T09:46:06.887Z,2.50
2023-03-11T09:48:54.390Z,3.60
2023-03-11T09:51:26.662Z,3.28
2023-03-11T09:54:00.458Z,3.03
2023-03-11T09:56:28.222Z,3.50
2023-03-11T09:59:07.261Z,3.15
2023-03-11T10:01:35.643Z,5.03
2023-03-11T10:04:09.845Z,4.55
2023-03-11T10:06:37.511Z,5.90
2023-03-11T10:09:20.022Z,3.97
2023-03-11T10:11:50.376Z,4.35
2023-03-11T10:14:17.615Z,4.93
2023-03-11T10:16:56.303Z,5.28
2023-03-11T10:19:26.629Z,4.18
2023-03-11T10:22:01.770Z,6.70
2023-03-11T10:24:45.757Z,11.43
2023-03-11T10:27:34.125Z,6.10
2023-03-11T10:30:06.104Z,2.65
2023-03-11T10:32:39.688Z,3.20
2023-03-11T10:35:15.383Z,3.13
2023-03-11T10:37:50.170Z,3.13
2023-03-11T10:40:24.080Z,3.90
2023-03-11T10:42:52.622Z,3.00
2023-03-11T10:45:20.979Z,4.28
2023-03-11T10:47:48.307Z,2.20
2023-03-11T10:50:19.747Z,3.10
2023-03-11T10:53:13.637Z,3.70
2023-03-11T10:56:01.393Z,3.72
2023-03-11T10:58:30.114Z,4.13
2023-03-11T11:01:05.497Z,6.97
2023-03-11T11:03:33.617Z,6.00
2023-03-11T11:06:05.821Z,5.95
2023-03-11T11:08:33.432Z,2.80
2023-03-11T11:11:01.896Z,3.50
2023-03-11T11:13:31.203Z,4.30
2023-03-11T11:16:00.868Z,3.88
2023-03-11T11:18:33.044Z,3.70
2023-03-11T11:21:05.200Z,2.97
2023-03-11T11:23:38.162Z,5.65
2023-03-11T11:26:07.364Z,2.70
2023-03-11T11:28:35.224Z,4.03
2023-03-11T11:31:07.439Z,4.13
2023-03-11T11:33:39.659Z,3.33
2023-03-11T11:36:12.032Z,4.68
2023-03-11T11:38:39.412Z,2.97
2023-03-11T11:41:07.457Z,3.42
2023-03-11T11:43:43.982Z,2.97
2023-03-11T11:46:22.460Z,4.10
2023-03-11T11:48:57.495Z,4.75
2023-03-11T11:51:29.317Z,3.73
2023-03-11T11:53:57.652Z,3.67
2023-03-11T11:56:26.371Z,4.50
2023-03-11T11:58:59.523Z,4.95
2023-03-11T12:01:36.016Z,5.43
2023-03-11T12:04:18.666Z,3.93
2023-03-11T12:06:49.033Z,7.60
2023-03-11T12:09:28.738Z,6.30
2023-03-11T12:12:05.246Z,4.72
2023-03-11T12:14:52.829Z,1.75
2023-03-11T12:17:23.730Z,4.87
2023-03-11T12:19:56.860Z,2.65
2023-03-11T12:22:42.044Z,3.70
2023-03-11T12:25:09.858Z,2.90
2023-03-11T12:27:43.048Z,3.20
2023-03-11T12:30:16.784Z,2.77
2023-03-11T12:32:48.341Z,3.60
2023-03-11T12:35:24.861Z,5.35
2023-03-11T12:38:11.012Z,6.40
2023-03-11T12:40:44.260Z,2.20
2023-03-11T12:43:37.921Z,3.67
2023-03-11T12:46:09.216Z,2.60
2023-03-11T12:48:46.793Z,2.72
2023-03-11T12:51:34.299Z,2.78
2023-03-11T12:54:27.935Z,2.00
2023-03-11T12:56:58.211Z,2.80
2023-03-11T12:59:25.551Z,4.78
2023-03-11T13:02:05.633Z,2.65
2023-03-11T13:04:45.578Z,3.78
2023-03-11T13:07:13.230Z,4.50
2023-03-11T13:09:41.038Z,4.37
2023-03-11T13:12:27.514Z,2.70
2023-03-11T13:15:13.418Z,2.78
2023-03-11T13:17:41.829Z,1.75
2023-03-11T13:20:29.043Z,4.13
2023-03-11T13:22:56.283Z,2.53
2023-03-11T13:25:31.830Z,2.28
2023-03-11T13:28:08.068Z,2.42
2023-03-11T13:30:39.328Z,3.53
2023-03-11T13:33:21.438Z,6.43
2023-03-11T13:35:48.755Z,1.93
2023-03-11T13:38:25.161Z,6.78
2023-03-11T13:40:53.201Z,2.50
2023-03-11T13:43:20.586Z,2.50
2023-03-11T13:46:06.451Z,2.58
2023-03-11T13:48:37.629Z,3.57
2023-03-11T13:51:05.330Z,2.15
2023-03-11T13:53:38.493Z,2.35
2023-03-11T13:56:05.948Z,2.42
2023-03-11T13:58:33.164Z,4.25
2023-03-11T14:01:01.780Z,5.43
2023-03-11T14:03:33.712Z,3.40
2023-03-11T14:06:08.616Z,2.08
2023-03-11T14:08:37.169Z,2.58
2023-03-11T14:11:04.401Z,4.07
2023-03-11T14:13:32.802Z,2.67
2023-03-11T14:16:02.713Z,2.80
2023-03-11T14:18:33.085Z,3.92
2023-03-11T14:21:01.086Z,3.95
2023-03-11T14:23:34.491Z,2.05
2023-03-11T14:26:06.957Z,3.63
2023-03-11T14:28:36.595Z,2.45
2023-03-11T14:31:04.629Z,4.28
2023-03-11T14:33:31.973Z,2.30
2023-03-11T14:36:00.767Z,3.30
2023-03-11T14:38:29.631Z,2.33
2023-03-11T14:40:58.156Z,4.53
2023-03-11T14:43:26.251Z,1.45
2023-03-11T14:45:54.220Z,3.25
2023-03-11T14:48:24.915Z,1.90
2023-03-11T14:50:52.893Z,3.33
2023-03-11T14:53:31.586Z,2.50
2023-03-11T14:56:00.054Z,3.60
2023-03-11T14:58:30.539Z,1.95
2023-03-11T15:01:12.604Z,3.33
2023-03-11T15:03:42.466Z,2.43
2023-03-11T15:06:13.175Z,3.25
2023-03-11T15:08:45.892Z,2.30
2023-03-11T15:11:13.270Z,2.97
2023-03-11T15:13:42.043Z,2.75
2023-03-11T15:16:22.804Z,2.80
2023-03-11T15:18:50.160Z,2.95
2023-03-11T15:21:18.979Z,3.90
2023-03-11T15:23:51.257Z,2.88
2023-03-11T15:26:23.646Z,3.30
2023-03-11T15:29:14.218Z,3.20
2023-03-11T15:31:42.588Z,2.10
2023-03-11T15:34:12.452Z,1.70
2023-03-11T15:36:42.354Z,2.38
2023-03-11T15:39:09.638Z,2.00
2023-03-11T15:41:36.882Z,2.83
2023-03-11T15:44:07.490Z,1.45
2023-03-11T15:46:35.301Z,2.90
2023-03-11T15:49:02.606Z,2.20
2023-03-11T15:51:29.886Z,5.15
2023-03-11T15:53:57.124Z,3.47
2023-03-11T15:56:25.209Z,1.80
2023-03-11T15:58:52.544Z,2.83
2023-03-11T16:01:23.777Z,6.95
2023-03-11T16:03:51.339Z,2.53
2023-03-11T16:06:18.601Z,2.10
2023-03-11T16:08:45.915Z,3.40
2023-03-11T16:11:13.612Z,2.92
2023-03-11T16:13:41.458Z,2.55
2023-03-11T16:16:18.059Z,1.88
2023-03-11T16:18:45.467Z,3.43
2023-03-11T16:21:16.529Z,3.22
2023-03-11T16:23:51.607Z,2.42
2023-03-11T16:26:22.092Z,4.78
2023-03-11T16:28:49.510Z,3.22
2023-03-11T16:31:16.839Z,3.70
2023-03-11T16:33:44.215Z,4.22
2023-03-11T16:36:11.723Z,2.70
2023-03-11T16:38:44.333Z,3.90
2023-03-11T16:41:11.913Z,4.63
2023-03-11T16:43:39.170Z,4.63
2023-03-11T16:46:06.511Z,1.70
2023-03-11T16:48:34.094Z,1.77
2023-03-11T16:51:02.036Z,4.47
2023-03-11T16:53:29.424Z,3.47
2023-03-11T16:55:57.007Z,7.43
2023-03-11T16:58:24.542Z,5.30
2023-03-11T17:00:51.801Z,5.25
2023-03-11T17:03:21.853Z,8.10
2023-03-11T17:05:49.548Z,5.20
2023-03-11T17:08:18.454Z,5.63
2023-03-11T17:10:46.753Z,7.35
2023-03-11T17:13:17.012Z,5.10
2023-03-11T17:15:46.715Z,5.80
2023-03-11T17:18:14.006Z,2.53
2023-03-11T17:20:43.613Z,4.23
2023-03-11T17:23:10.894Z,3.90
2023-03-11T17:25:41.195Z,5.47
2023-03-11T17:28:08.949Z,4.70
2023-03-11T17:30:37.473Z,4.90
2023-03-11T17:33:05.161Z,4.30
2023-03-11T17:35:32.669Z,3.90
2023-03-11T17:38:00.130Z,3.85
2023-03-11T17:40:29.345Z,9.93
2023-03-11T17:42:56.937Z,4.45
2023-03-11T17:45:24.218Z,2.77
2023-03-11T17:47:51.505Z,4.75
2023-03-11T17:50:19.048Z,6.13
2023-03-11T17:52:54.648Z,5.97
2023-03-11T17:55:21.876Z,8.45
2023-03-11T17:57:49.166Z,9.00
2023-03-11T18:00:16.701Z,5.97
2023-03-11T18:02:43.937Z,11.68
2023-03-11T18:05:11.446Z,3.53
2023-03-11T18:07:39.246Z,3.53
2023-03-11T18:10:07.410Z,5.33
2023-03-11T18:12:34.765Z,8.38
2023-03-11T18:15:04.194Z,6.70
2023-03-11T18:17:31.483Z,5.43
2023-03-11T18:20:02.377Z,7.82
2023-03-11T18:22:29.659Z,12.40
2023-03-11T18:24:57.821Z,9.98
2023-03-11T18:27:25.586Z,7.03
2023-03-11T18:29:52.780Z,7.65
2023-03-11T18:32:20.911Z,6.63
2023-03-11T18:34:51.439Z,7.83
2023-03-11T18:37:18.817Z,7.40
2023-03-11T18:39:46.154Z,6.85
2023-03-11T18:42:14.160Z,12.63
2023-03-11T18:44:42.044Z,10.10
2023-03-11T18:47:09.394Z,12.90
2023-03-11T18:49:36.751Z,5.85
2023-03-11T18:52:04.072Z,10.68
2023-03-11T18:54:31.311Z,12.98
2023-03-11T18:56:58.648Z,14.63
2023-03-11T18:59:27.852Z,13.97
2023-03-11T19:01:55.377Z,14.30
2023-03-11T19:04:22.757Z,8.27
2023-03-11T19:06:50.263Z,6.35
2023-03-11T19:09:18.496Z,5.20
2023-03-11T19:11:46.348Z,6.63
2023-03-11T19:14:13.657Z,7.72
2023-03-11T19:16:40.937Z,13.32
2023-03-11T19:19:10.744Z,12.70
2023-03-11T19:21:38.916Z,13.25
2023-03-11T19:24:06.329Z,9.17
2023-03-11T19:26:45.775Z,10.50
2023-03-11T19:29:14.086Z,9.40
2023-03-11T19:31:43.370Z,8.13
2023-03-11T19:34:10.735Z,18.27
2023-03-11T19:36:39.195Z,17.73
2023-03-11T19:39:06.555Z,12.60
2023-03-11T19:41:33.827Z,11.35
2023-03-11T19:44:01.430Z,12.45
2023-03-11T19:46:29.732Z,13.27
2023-03-11T19:48:57.113Z,8.23
2023-03-11T19:51:26.594Z,11.88
2023-03-11T19:53:55.699Z,16.20
2023-03-11T19:56:23.433Z,11.57
2023-03-11T19:58:50.641Z,12.70
2023-03-11T20:01:18.718Z,13.07
2023-03-11T20:03:46.053Z,10.68
2023-03-11T20:06:16.390Z,11.85
2023-03-11T20:08:43.920Z,11.02
2023-03-11T20:11:11.258Z,11.80
2023-03-11T20:13:41.243Z,13.90
2023-03-11T20:16:10.234Z,19.88
2023-03-11T20:18:37.692Z,20.17
2023-03-11T20:21:06.183Z,18.15
2023-03-11T20:23:33.945Z,18.35
2023-03-11T20:26:01.275Z,19.38
2023-03-11T20:28:28.638Z,25.23
2023-03-11T20:30:56.029Z,32.03
2023-03-11T20:33:23.388Z,30.50
2023-03-11T20:35:50.734Z,20.30
2023-03-11T20:38:18.061Z,16.02
2023-03-11T20:40:45.440Z,10.85
2023-03-11T20:43:12.898Z,15.13
2023-03-11T20:45:40.314Z,16.02
2023-03-11T20:48:07.611Z,16.42
2023-03-11T20:50:35.038Z,16.25
2023-03-11T20:53:02.407Z,15.95
2023-03-11T20:55:29.759Z,16.35
2023-03-11T20:57:57.241Z,15.93
2023-03-11T21:00:24.565Z,16.48
2023-03-11T21:02:51.960Z,15.50
2023-03-11T21:05:19.470Z,18.20
2023-03-11T21:07:48.490Z,14.60
2023-03-11T21:10:16.080Z,12.18
2023-03-11T21:12:43.465Z,14.43
2023-03-11T21:15:11.240Z,13.10
2023-03-11T21:17:38.637Z,14.02
2023-03-11T21:20:06.380Z,16.38
2023-03-11T21:22:34.007Z,14.65
2023-03-11T21:25:01.426Z,19.17
2023-03-11T21:27:28.839Z,12.18
2023-03-11T21:29:56.361Z,13.30
2023-03-11T21:32:24.203Z,18.25
2023-03-11T21:34:51.602Z,14.88
2023-03-11T21:37:19.044Z,12.88
2023-03-11T21:39:46.380Z,14.10
2023-03-11T21:42:14.284Z,10.85
2023-03-11T21:44:42.003Z,16.98
2023-03-11T21:47:09.514Z,17.45
2023-03-11T21:49:38.913Z,13.13
2023-03-11T21:52:06.711Z,11.43
2023-03-11T21:54:34.041Z,9.70
2023-03-11T21:57:01.544Z,10.90
2023-03-11T21:59:30.053Z,9.13
2023-03-11T22:02:01.440Z,7.72
2023-03-11T22:04:29.058Z,8.93
2023-03-11T22:06:57.409Z,8.20
2023-03-11T22:09:25.856Z,10.50
2023-03-11T22:11:53.569Z,10.93
2023-03-11T22:14:21.102Z,7.60
2023-03-11T22:16:48.597Z,9.27
2023-03-11T22:19:16.007Z,8.93
2023-03-11T22:21:43.858Z,6.68
2023-03-11T22:24:11.408Z,7.75
2023-03-11T22:26:38.689Z,8.45
2023-03-11T22:29:08.558Z,9.25
2023-03-11T22:31:36.167Z,8.35
2023-03-11T22:34:03.484Z,10.38
2023-03-11T22:36:30.805Z,11.93
2023-03-11T22:38:58.022Z,6.50
2023-03-11T22:41:25.399Z,7.90
2023-03-11T22:43:52.629Z,8.35
2023-03-11T22:46:19.933Z,8.80
2023-03-11T22:48:47.347Z,9.07
2023-03-11T22:51:14.862Z,8.45
2023-03-11T22:53:42.182Z,11.95
2023-03-11T22:56:13.868Z,11.52
2023-03-11T22:58:41.592Z,8.60
2023-03-11T23:01:09.319Z,11.30
2023-03-11T23:03:37.304Z,16.33
2023-03-11T23:06:06.413Z,9.23
2023-03-11T23:08:33.748Z,10.18
2023-03-11T23:11:05.370Z,11.80
2023-03-11T23:13:33.948Z,11.73
2023-03-11T23:16:04.580Z,11.32
2023-03-11T23:18:31.915Z,13.02
2023-03-11T23:20:59.206Z,9.63
2023-03-11T23:23:26.622Z,9.35
2023-03-11T23:25:54.832Z,11.98
2023-03-11T23:28:22.489Z,11.07
2023-03-11T23:30:52.865Z,10.95
2023-03-11T23:33:21.776Z,11.85
2023-03-11T23:35:49.500Z,11.70
2023-03-11T23:38:17.386Z,10.52
2023-03-11T23:40:45.936Z,15.88
2023-03-11T23:43:14.774Z,13.48
2023-03-11T23:45:43.320Z,11.20
2023-03-11T23:48:11.268Z,14.02
2023-03-11T23:50:39.295Z,9.93
2023-03-11T23:53:07.781Z,12.00
2023-03-11T23:55:38.088Z,11.77
2023-03-11T23:58:07.393Z,12.20
